Time;durP1;ratioP1;P1;durP2;ratioP2;P2;SDS_P1;SDS_P2;PMS_P1;PMS_P2;Temp;Humidity;BMP_temperature;BMP_pressure;BME280_temperature;BME280_humidity;BME280_pressure;Samples;Min_cycle;Max_cycle;Signal;HPM_P1;HPM_P2
2019/05/31 00:01:53;;;;;;;1.48;1.38;;;;;;;20.21;49.76;101489.09;;;;-56
2019/05/31 00:04:53;;;;;;;1.40;1.30;;;;;;;20.21;49.75;101486.17;;;;-54
2019/05/31 00:07:53;;;;;;;1.55;1.30;;;;;;;20.20;49.72;101486.19;;;;-54
2019/05/31 00:10:53;;;;;;;1.89;1.40;;;;;;;20.19;49.72;101482.60;;;;-55
2019/05/31 00:13:53;;;;;;;1.49;1.39;;;;;;;20.20;49.73;101484.77;;;;-52
2019/05/31 00:16:53;;;;;;;1.59;1.45;;;;;;;20.19;49.76;101480.02;;;;-51
2019/05/31 00:19:53;;;;;;;1.49;1.39;;;;;;;20.19;49.67;101480.76;;;;-51
2019/05/31 00:22:53;;;;;;;1.50;1.40;;;;;;;20.18;49.74;101480.41;;;;-53
2019/05/31 00:25:53;;;;;;;2.42;1.45;;;;;;;20.18;49.71;101478.78;;;;-52
2019/05/31 00:28:53;;;;;;;1.57;1.47;;;;;;;20.17;49.76;101480.75;;;;-54
2019/05/31 00:31:53;;;;;;;2.11;1.39;;;;;;;20.17;49.72;101481.08;;;;-54
2019/05/31 00:34:53;;;;;;;1.41;1.31;;;;;;;20.17;49.73;101480.31;;;;-54
2019/05/31 00:37:53;;;;;;;1.61;1.40;;;;;;;20.16;49.77;101477.34;;;;-54
2019/05/31 00:40:53;;;;;;;1.52;1.42;;;;;;;20.16;49.76;101479.41;;;;-53
2019/05/31 00:43:53;;;;;;;1.49;1.39;;;;;;;20.15;49.76;101474.70;;;;-54
2019/05/31 00:46:53;;;;;;;1.43;1.33;;;;;;;20.16;49.70;101475.16;;;;-52
2019/05/31 00:49:53;;;;;;;1.41;1.30;;;;;;;20.14;49.72;101473.80;;;;-52
2019/05/31 00:52:53;;;;;;;1.53;1.40;;;;;;;20.14;49.74;101472.02;;;;-54
2019/05/31 00:55:53;;;;;;;1.40;1.30;;;;;;;20.15;49.75;101474.08;;;;-61
2019/05/31 00:58:53;;;;;;;1.93;1.37;;;;;;;20.13;49.73;101469.05;;;;-61
2019/05/31 01:01:53;;;;;;;1.64;1.54;;;;;;;20.13;49.77;101467.10;;;;-54
2019/05/31 01:04:53;;;;;;;1.50;1.40;;;;;;;20.13;49.78;101468.55;;;;-56
2019/05/31 01:07:53;;;;;;;1.45;1.35;;;;;;;20.13;49.78;101461.50;;;;-62
2019/05/31 01:10:53;;;;;;;1.40;1.30;;;;;;;20.12;49.75;101456.06;;;;-52
2019/05/31 01:13:53;;;;;;;1.67;1.29;;;;;;;20.12;49.71;101456.14;;;;-51
2019/05/31 01:16:53;;;;;;;1.37;1.27;;;;;;;20.12;49.77;101457.91;;;;-54
2019/05/31 01:19:53;;;;;;;1.47;1.30;;;;;;;20.12;49.78;101461.44;;;;-56
2019/05/31 01:22:53;;;;;;;1.40;1.30;;;;;;;20.12;49.74;101456.57;;;;-54
2019/05/31 01:25:53;;;;;;;2.05;1.33;;;;;;;20.11;49.77;101460.38;;;;-51
2019/05/31 01:28:53;;;;;;;1.48;1.38;;;;;;;20.11;49.77;101463.46;;;;-54
2019/05/31 01:31:53;;;;;;;2.14;1.33;;;;;;;20.11;49.74;101455.84;;;;-51
2019/05/31 01:34:53;;;;;;;1.59;1.33;;;;;;;20.11;49.80;101454.06;;;;-56
2019/05/31 01:37:53;;;;;;;1.40;1.30;;;;;;;20.11;49.81;101463.45;;;;-56
2019/05/31 01:40:53;;;;;;;1.81;1.30;;;;;;;20.10;49.79;101463.06;;;;-56
2019/05/31 01:43:53;;;;;;;1.34;1.24;;;;;;;20.10;49.79;101465.08;;;;-51
2019/05/31 01:46:53;;;;;;;1.49;1.39;;;;;;;20.10;49.73;101463.22;;;;-54
2019/05/31 01:49:53;;;;;;;1.43;1.33;;;;;;;20.10;49.72;101465.41;;;;-56
2019/05/31 01:52:53;;;;;;;1.37;1.27;;;;;;;20.09;49.70;101460.98;;;;-56
2019/05/31 01:55:53;;;;;;;1.40;1.30;;;;;;;20.09;49.80;101458.64;;;;-62
2019/05/31 01:58:53;;;;;;;1.50;1.40;;;;;;;20.09;49.77;101461.77;;;;-61
2019/05/31 02:01:53;;;;;;;1.47;1.37;;;;;;;20.08;49.78;101453.34;;;;-55
2019/05/31 02:04:53;;;;;;;1.50;1.40;;;;;;;20.08;49.75;101451.81;;;;-56
2019/05/31 02:07:53;;;;;;;1.48;1.38;;;;;;;20.08;49.78;101453.82;;;;-53
2019/05/31 02:10:53;;;;;;;1.96;1.47;;;;;;;20.07;49.76;101448.40;;;;-61
2019/05/31 02:13:53;;;;;;;1.47;1.35;;;;;;;20.07;49.75;101450.35;;;;-62
2019/05/31 02:16:53;;;;;;;1.52;1.42;;;;;;;20.07;49.79;101455.79;;;;-61
2019/05/31 02:19:53;;;;;;;1.42;1.30;;;;;;;20.06;49.77;101449.45;;;;-61
2019/05/31 02:22:53;;;;;;;1.50;1.40;;;;;;;20.07;49.75;101452.59;;;;-62
2019/05/31 02:25:53;;;;;;;1.47;1.30;;;;;;;20.06;49.80;101454.11;;;;-61
2019/05/31 02:28:53;;;;;;;1.48;1.31;;;;;;;20.06;49.76;101452.70;;;;-51
2019/05/31 02:31:53;;;;;;;1.60;1.40;;;;;;;20.05;49.72;101452.41;;;;-62
2019/05/31 02:34:53;;;;;;;1.40;1.30;;;;;;;20.05;49.82;101453.16;;;;-52
2019/05/31 02:37:53;;;;;;;1.45;1.35;;;;;;;20.05;49.73;101453.65;;;;-54
2019/05/31 02:40:53;;;;;;;1.97;1.35;;;;;;;20.05;49.76;101452.98;;;;-54
2019/05/31 02:43:53;;;;;;;1.46;1.36;;;;;;;20.05;49.79;101455.22;;;;-61
2019/05/31 02:46:53;;;;;;;1.43;1.33;;;;;;;20.04;49.78;101454.77;;;;-61
2019/05/31 02:49:53;;;;;;;1.41;1.31;;;;;;;20.04;49.73;101451.64;;;;-62
2019/05/31 02:52:53;;;;;;;1.62;1.39;;;;;;;20.04;49.73;101454.49;;;;-62
2019/05/31 02:55:53;;;;;;;1.63;1.41;;;;;;;20.03;49.72;101454.98;;;;-62
2019/05/31 02:58:53;;;;;;;1.39;1.29;;;;;;;20.04;49.72;101459.19;;;;-61
2019/05/31 03:01:53;;;;;;;1.43;1.30;;;;;;;20.03;49.73;101460.59;;;;-62
2019/05/31 03:04:53;;;;;;;1.51;1.41;;;;;;;20.02;49.78;101457.68;;;;-62
2019/05/31 03:07:53;;;;;;;1.50;1.40;;;;;;;20.02;49.77;101463.38;;;;-61
2019/05/31 03:10:53;;;;;;;1.40;1.30;;;;;;;20.02;49.76;101465.99;;;;-57
2019/05/31 03:13:53;;;;;;;1.50;1.40;;;;;;;20.03;49.74;101467.78;;;;-56
2019/05/31 03:16:53;;;;;;;1.47;1.37;;;;;;;20.02;49.74;101468.84;;;;-57
2019/05/31 03:19:52;;;;;;;1.40;1.30;;;;;;;20.02;49.79;101468.97;;;;-55
2019/05/31 03:22:53;;;;;;;1.48;1.38;;;;;;;20.02;49.75;101468.30;;;;-55
2019/05/31 03:25:53;;;;;;;1.50;1.40;;;;;;;20.01;49.72;101468.73;;;;-57
2019/05/31 03:28:53;;;;;;;1.39;1.28;;;;;;;20.01;49.77;101470.53;;;;-55
2019/05/31 03:31:53;;;;;;;1.45;1.35;;;;;;;20.01;49.81;101474.56;;;;-54
2019/05/31 03:34:53;;;;;;;1.41;1.31;;;;;;;20.01;49.78;101482.61;;;;-62
2019/05/31 03:37:53;;;;;;;1.49;1.39;;;;;;;20.02;49.78;101482.05;;;;-61
2019/05/31 03:40:53;;;;;;;1.50;1.40;;;;;;;20.01;49.77;101481.53;;;;-61
2019/05/31 03:43:53;;;;;;;1.40;1.30;;;;;;;20.01;49.77;101482.59;;;;-55
2019/05/31 03:46:53;;;;;;;1.35;1.25;;;;;;;20.02;49.70;101487.28;;;;-56
2019/05/31 03:49:53;;;;;;;1.50;1.35;;;;;;;20.02;49.71;101487.52;;;;-56
2019/05/31 03:52:53;;;;;;;1.45;1.30;;;;;;;20.02;49.70;101489.30;;;;-55
2019/05/31 03:55:53;;;;;;;1.67;1.57;;;;;;;20.02;49.70;101494.05;;;;-54
2019/05/31 03:58:53;;;;;;;1.54;1.43;;;;;;;20.03;49.66;101489.14;;;;-61
2019/05/31 04:01:53;;;;;;;1.40;1.30;;;;;;;20.03;49.68;101491.78;;;;-54
2019/05/31 04:04:53;;;;;;;1.55;1.39;;;;;;;20.03;49.69;101491.61;;;;-55
2019/05/31 04:07:53;;;;;;;1.41;1.31;;;;;;;20.04;49.62;101491.83;;;;-54
2019/05/31 04:10:53;;;;;;;1.40;1.30;;;;;;;20.04;49.60;101493.61;;;;-54
2019/05/31 04:13:53;;;;;;;1.50;1.40;;;;;;;20.05;49.58;101494.91;;;;-56
2019/05/31 04:16:53;;;;;;;1.37;1.27;;;;;;;20.06;49.57;101497.38;;;;-57
2019/05/31 04:19:53;;;;;;;1.45;1.35;;;;;;;20.07;49.55;101497.38;;;;-57
2019/05/31 04:22:53;;;;;;;1.50;1.40;;;;;;;20.08;49.49;101495.75;;;;-61
2019/05/31 04:25:53;;;;;;;1.23;1.20;;;;;;;20.08;49.56;101497.33;;;;-54
2019/05/31 04:28:53;;;;;;;1.35;1.25;;;;;;;20.09;49.49;101499.52;;;;-51
2019/05/31 04:31:53;;;;;;;1.55;1.30;;;;;;;20.10;49.51;101501.46;;;;-55
2019/05/31 04:34:53;;;;;;;1.40;1.30;;;;;;;20.10;49.53;101502.13;;;;-56
2019/05/31 04:37:53;;;;;;;1.40;1.30;;;;;;;20.10;49.54;101503.75;;;;-61
2019/05/31 04:40:53;;;;;;;1.33;1.22;;;;;;;20.11;49.56;101508.56;;;;-61
2019/05/31 04:43:53;;;;;;;1.35;1.25;;;;;;;20.12;49.54;101510.13;;;;-61
2019/05/31 04:46:53;;;;;;;1.39;1.29;;;;;;;20.12;49.52;101511.08;;;;-61
2019/05/31 04:49:53;;;;;;;1.35;1.25;;;;;;;20.11;49.55;101507.41;;;;-61
2019/05/31 04:52:53;;;;;;;1.37;1.27;;;;;;;20.12;49.47;101511.99;;;;-61
2019/05/31 04:55:53;;;;;;;1.42;1.29;;;;;;;20.12;49.54;101512.33;;;;-52
2019/05/31 04:58:53;;;;;;;1.40;1.30;;;;;;;20.12;49.56;101515.28;;;;-51
2019/05/31 05:01:53;;;;;;;1.39;1.29;;;;;;;20.12;49.48;101513.44;;;;-52
2019/05/31 05:04:53;;;;;;;1.50;1.40;;;;;;;20.14;49.42;101514.44;;;;-51
2019/05/31 05:07:53;;;;;;;1.61;1.31;;;;;;;20.13;49.50;101508.52;;;;-52
2019/05/31 05:10:52;;;;;;;1.40;1.30;;;;;;;20.13;49.50;101509.20;;;;-54
2019/05/31 05:13:53;;;;;;;1.40;1.30;;;;;;;20.13;49.48;101510.12;;;;-54
2019/05/31 05:16:53;;;;;;;1.46;1.36;;;;;;;20.14;49.48;101512.09;;;;-54
2019/05/31 05:19:53;;;;;;;1.30;1.20;;;;;;;20.13;49.45;101514.17;;;;-51
2019/05/31 05:22:53;;;;;;;1.50;1.36;;;;;;;20.13;49.50;101511.14;;;;-52
2019/05/31 05:25:53;;;;;;;1.51;1.41;;;;;;;20.13;49.50;101509.87;;;;-51
2019/05/31 05:28:52;;;;;;;1.40;1.30;;;;;;;20.13;49.49;101512.32;;;;-57
2019/05/31 05:31:52;;;;;;;1.44;1.34;;;;;;;20.14;49.50;101512.59;;;;-52
2019/05/31 05:34:53;;;;;;;1.46;1.36;;;;;;;20.12;49.75;101515.95;;;;-53
2019/05/31 05:37:53;;;;;;;5.13;1.50;;;;;;;20.15;49.90;101516.79;;;;-63
2019/05/31 05:40:53;;;;;;;3.44;1.56;;;;;;;20.16;49.91;101516.42;;;;-53
2019/05/31 05:43:53;;;;;;;4.81;1.50;;;;;;;20.17;49.98;101518.43;;;;-55
2019/05/31 05:46:53;;;;;;;3.94;1.46;;;;;;;20.18;50.02;101512.34;;;;-50
2019/05/31 05:49:53;;;;;;;1.40;1.30;;;;;;;20.19;49.99;101514.85;;;;-49
2019/05/31 05:52:53;;;;;;;6.93;1.61;;;;;;;20.21;49.87;101517.72;;;;-54
2019/05/31 05:55:53;;;;;;;1.66;1.38;;;;;;;20.21;49.77;101519.72;;;;-60
2019/05/31 05:58:53;;;;;;;2.99;1.41;;;;;;;20.21;49.71;101523.36;;;;-61
2019/05/31 06:01:53;;;;;;;2.19;1.39;;;;;;;20.21;49.71;101523.42;;;;-58
2019/05/31 06:04:53;;;;;;;4.75;1.55;;;;;;;20.20;49.79;101525.81;;;;-57
2019/05/31 06:07:53;;;;;;;2.09;1.40;;;;;;;20.21;49.80;101525.59;;;;-54
2019/05/31 06:10:53;;;;;;;3.29;1.45;;;;;;;20.20;49.70;101523.86;;;;-54
2019/05/31 06:13:52;;;;;;;3.31;1.52;;;;;;;20.20;49.68;101524.64;;;;-56
2019/05/31 06:16:53;;;;;;;2.47;1.43;;;;;;;20.19;49.71;101528.44;;;;-55
2019/05/31 06:19:53;;;;;;;3.13;1.40;;;;;;;20.20;49.74;101532.81;;;;-54
2019/05/31 06:22:52;;;;;;;1.69;1.31;;;;;;;20.19;49.66;101530.85;;;;-55
2019/05/31 06:25:53;;;;;;;1.50;1.40;;;;;;;20.16;49.71;101529.77;;;;-50
2019/05/31 06:28:53;;;;;;;3.61;1.53;;;;;;;20.20;50.17;101531.73;;;;-52
2019/05/31 06:31:53;;;;;;;2.11;1.50;;;;;;;20.23;50.21;101533.92;;;;-49
2019/05/31 06:34:53;;;;;;;2.70;1.51;;;;;;;20.23;50.18;101532.48;;;;-50
2019/05/31 06:37:53;;;;;;;2.31;1.43;;;;;;;20.23;50.17;101532.09;;;;-49
2019/05/31 06:40:53;;;;;;;2.67;1.49;;;;;;;20.24;50.07;101532.15;;;;-53
2019/05/31 06:43:53;;;;;;;3.93;1.70;;;;;;;20.26;50.52;101534.95;;;;-62
2019/05/31 06:46:53;;;;;;;2.43;1.57;;;;;;;20.29;50.45;101537.27;;;;-62
2019/05/31 06:49:53;;;;;;;3.87;1.70;;;;;;;20.29;50.57;101535.86;;;;-58
2019/05/31 06:52:53;;;;;;;8.53;1.79;;;;;;;20.30;50.44;101538.49;;;;-51
2019/05/31 06:55:53;;;;;;;5.75;1.68;;;;;;;20.29;50.48;101536.19;;;;-53
2019/05/31 06:58:52;;;;;;;4.97;1.49;;;;;;;20.29;50.31;101534.95;;;;-52
2019/05/31 07:01:53;;;;;;;3.81;1.64;;;;;;;20.28;50.31;101535.34;;;;-52
2019/05/31 07:04:53;;;;;;;5.15;1.66;;;;;;;20.29;50.15;101537.20;;;;-53
2019/05/31 07:07:52;;;;;;;3.12;1.56;;;;;;;20.28;50.14;101545.20;;;;-52
2019/05/31 07:10:53;;;;;;;5.13;1.75;;;;;;;20.28;50.10;101544.63;;;;-50
2019/05/31 07:13:53;;;;;;;2.79;1.49;;;;;;;20.27;50.08;101544.70;;;;-50
2019/05/31 07:16:53;;;;;;;3.83;1.62;;;;;;;20.27;50.00;101545.64;;;;-50
2019/05/31 07:19:53;;;;;;;2.21;1.49;;;;;;;20.26;49.96;101543.34;;;;-50
2019/05/31 07:22:53;;;;;;;2.04;1.45;;;;;;;20.26;49.99;101541.55;;;;-50
2019/05/31 07:25:53;;;;;;;1.45;1.31;;;;;;;20.25;49.96;101546.13;;;;-50
2019/05/31 07:28:53;;;;;;;2.13;1.50;;;;;;;20.25;49.91;101547.14;;;;-50
2019/05/31 07:31:53;;;;;;;3.00;1.50;;;;;;;20.24;49.90;101546.02;;;;-50
2019/05/31 07:34:53;;;;;;;3.73;1.56;;;;;;;20.24;49.91;101546.47;;;;-50
2019/05/31 07:37:53;;;;;;;1.93;1.47;;;;;;;20.23;49.95;101550.27;;;;-50
2019/05/31 07:40:53;;;;;;;1.60;1.50;;;;;;;20.22;49.87;101550.09;;;;-50
2019/05/31 07:43:53;;;;;;;1.78;1.49;;;;;;;20.22;49.91;101550.66;;;;-50
2019/05/31 07:46:53;;;;;;;2.29;1.58;;;;;;;20.21;49.88;101550.37;;;;-50
2019/05/31 07:49:53;;;;;;;2.57;1.67;;;;;;;20.21;49.83;101550.42;;;;-50
2019/05/31 07:52:53;;;;;;;4.47;1.61;;;;;;;20.20;49.84;101552.72;;;;-50
2019/05/31 07:55:53;;;;;;;2.60;1.50;;;;;;;20.20;49.86;101548.13;;;;-50
2019/05/31 07:58:53;;;;;;;3.06;1.57;;;;;;;20.20;49.87;101547.02;;;;-50
2019/05/31 08:01:53;;;;;;;3.26;1.51;;;;;;;20.19;49.85;101549.58;;;;-50
2019/05/31 08:04:53;;;;;;;2.31;1.62;;;;;;;20.19;49.84;101547.35;;;;-50
2019/05/31 08:07:53;;;;;;;2.50;1.53;;;;;;;20.19;49.82;101542.24;;;;-50
2019/05/31 08:10:53;;;;;;;2.11;1.53;;;;;;;20.19;49.85;101543.99;;;;-50
2019/05/31 08:13:53;;;;;;;1.92;1.50;;;;;;;20.18;49.79;101545.38;;;;-50
2019/05/31 08:16:53;;;;;;;2.33;1.45;;;;;;;20.18;49.82;101545.70;;;;-50
2019/05/31 08:19:53;;;;;;;2.02;1.38;;;;;;;20.17;49.77;101541.13;;;;-50
2019/05/31 08:22:53;;;;;;;1.99;1.40;;;;;;;20.17;49.80;101537.67;;;;-50
2019/05/31 08:25:53;;;;;;;2.14;1.57;;;;;;;20.17;49.83;101535.03;;;;-50
2019/05/31 08:28:53;;;;;;;1.82;1.43;;;;;;;20.17;49.75;101535.37;;;;-50
2019/05/31 08:31:53;;;;;;;2.10;1.36;;;;;;;20.16;49.74;101530.28;;;;-50
2019/05/31 08:34:52;;;;;;;2.68;1.41;;;;;;;20.15;49.73;101523.84;;;;-50
2019/05/31 08:37:53;;;;;;;2.59;1.40;;;;;;;20.16;49.75;101524.53;;;;-50
2019/05/31 08:40:53;;;;;;;1.79;1.30;;;;;;;20.14;49.71;101518.07;;;;-50
2019/05/31 08:43:53;;;;;;;1.59;1.32;;;;;;;20.15;49.70;101516.63;;;;-50
2019/05/31 08:46:52;;;;;;;1.41;1.31;;;;;;;20.16;49.69;101518.92;;;;-50
2019/05/31 08:49:53;;;;;;;1.78;1.36;;;;;;;20.14;49.72;101510.75;;;;-50
2019/05/31 08:52:53;;;;;;;1.91;1.40;;;;;;;20.15;49.76;101513.27;;;;-50
2019/05/31 08:55:52;;;;;;;1.93;1.33;;;;;;;20.14;49.70;101512.89;;;;-50
2019/05/31 08:58:53;;;;;;;1.81;1.38;;;;;;;20.14;49.71;101512.11;;;;-50
2019/05/31 09:01:53;;;;;;;1.61;1.38;;;;;;;20.14;49.72;101516.80;;;;-50
2019/05/31 09:04:53;;;;;;;2.27;1.55;;;;;;;20.14;49.75;101517.73;;;;-50
2019/05/31 09:07:53;;;;;;;1.87;1.34;;;;;;;20.13;49.74;101515.67;;;;-50
2019/05/31 09:10:52;;;;;;;1.87;1.41;;;;;;;20.12;49.75;101508.08;;;;-50
2019/05/31 09:13:53;;;;;;;1.83;1.36;;;;;;;20.13;49.71;101503.92;;;;-50
2019/05/31 09:16:52;;;;;;;1.53;1.42;;;;;;;20.12;49.76;101501.25;;;;-50
2019/05/31 09:19:53;;;;;;;1.37;1.27;;;;;;;20.11;49.74;101494.09;;;;-50
2019/05/31 09:22:53;;;;;;;1.50;1.40;;;;;;;20.12;49.71;101494.64;;;;-50
2019/05/31 09:25:53;;;;;;;1.61;1.39;;;;;;;20.12;49.69;101492.86;;;;-50
2019/05/31 09:28:52;;;;;;;1.47;1.30;;;;;;;20.11;49.76;101490.41;;;;-50
2019/05/31 09:31:52;;;;;;;1.39;1.29;;;;;;;20.12;49.68;101492.19;;;;-50
2019/05/31 09:34:52;;;;;;;1.48;1.38;;;;;;;20.11;49.71;101491.24;;;;-50
2019/05/31 09:37:53;;;;;;;1.85;1.23;;;;;;;20.11;49.73;101492.58;;;;-50
2019/05/31 09:40:53;;;;;;;2.03;1.41;;;;;;;20.10;49.72;101489.73;;;;-50
2019/05/31 09:43:53;;;;;;;1.78;1.30;;;;;;;20.11;49.72;101488.88;;;;-50
2019/05/31 09:46:53;;;;;;;1.99;1.40;;;;;;;20.10;49.69;101481.78;;;;-50
2019/05/31 09:49:53;;;;;;;1.41;1.30;;;;;;;20.10;49.66;101481.63;;;;-50
2019/05/31 09:52:52;;;;;;;1.35;1.19;;;;;;;20.09;49.71;101477.20;;;;-50
2019/05/31 09:55:52;;;;;;;1.57;1.31;;;;;;;20.10;49.66;101479.43;;;;-50
2019/05/31 09:58:52;;;;;;;1.55;1.39;;;;;;;20.09;49.64;101478.36;;;;-50
2019/05/31 10:01:53;;;;;;;1.34;1.25;;;;;;;20.09;49.67;101478.20;;;;-50
2019/05/31 10:04:53;;;;;;;2.10;1.37;;;;;;;20.09;49.65;101475.41;;;;-50
2019/05/31 10:07:53;;;;;;;1.50;1.40;;;;;;;20.09;49.68;101474.91;;;;-50
2019/05/31 10:10:53;;;;;;;1.40;1.30;;;;;;;20.08;49.70;101475.97;;;;-50
2019/05/31 10:13:53;;;;;;;2.02;1.41;;;;;;;20.08;49.71;101470.11;;;;-50
2019/05/31 10:16:52;;;;;;;1.56;1.46;;;;;;;20.09;49.68;101470.21;;;;-50
2019/05/31 10:19:52;;;;;;;1.61;1.41;;;;;;;20.08;49.66;101469.49;;;;-50
2019/05/31 10:22:53;;;;;;;1.57;1.33;;;;;;;20.08;49.67;101467.81;;;;-50
2019/05/31 10:25:53;;;;;;;1.65;1.39;;;;;;;20.08;49.66;101464.39;;;;-50
2019/05/31 10:28:53;;;;;;;2.20;1.49;;;;;;;20.08;49.72;101459.69;;;;-50
2019/05/31 10:31:53;;;;;;;1.40;1.30;;;;;;;20.07;49.68;101457.64;;;;-50
2019/05/31 10:34:53;;;;;;;1.85;1.40;;;;;;;20.08;49.64;101458.75;;;;-50
2019/05/31 10:37:53;;;;;;;1.91;1.40;;;;;;;20.07;49.66;101450.59;;;;-50
2019/05/31 10:40:52;;;;;;;1.49;1.30;;;;;;;20.07;49.67;101444.88;;;;-50
2019/05/31 10:43:53;;;;;;;1.70;1.31;;;;;;;20.07;49.66;101437.33;;;;-50
2019/05/31 10:46:53;;;;;;;1.39;1.29;;;;;;;20.06;49.67;101435.27;;;;-50
2019/05/31 10:49:53;;;;;;;1.41;1.31;;;;;;;20.06;49.64;101439.47;;;;-50
2019/05/31 10:52:53;;;;;;;1.71;1.30;;;;;;;20.07;49.72;101437.61;;;;-50
2019/05/31 10:55:52;;;;;;;1.38;1.28;;;;;;;20.06;49.63;101433.48;;;;-50
2019/05/31 10:58:53;;;;;;;1.68;1.40;;;;;;;20.06;49.66;101429.95;;;;-50
2019/05/31 11:01:53;;;;;;;1.42;1.32;;;;;;;20.06;49.69;101427.44;;;;-50
2019/05/31 11:04:53;;;;;;;1.46;1.30;;;;;;;20.06;49.60;101426.20;;;;-50
2019/05/31 11:07:53;;;;;;;1.41;1.31;;;;;;;20.05;49.63;101430.35;;;;-50
2019/05/31 11:10:53;;;;;;;1.37;1.27;;;;;;;20.04;49.69;101424.02;;;;-50
2019/05/31 11:13:53;;;;;;;1.41;1.31;;;;;;;20.05;49.63;101421.47;;;;-50
2019/05/31 11:16:52;;;;;;;1.30;1.20;;;;;;;20.04;49.60;101414.87;;;;-50
2019/05/31 11:19:53;;;;;;;1.43;1.33;;;;;;;20.05;49.69;101411.12;;;;-50
2019/05/31 11:22:52;;;;;;;1.60;1.39;;;;;;;20.05;49.60;101409.44;;;;-50
2019/05/31 11:25:52;;;;;;;1.50;1.40;;;;;;;20.04;49.64;101408.92;;;;-50
2019/05/31 11:28:53;;;;;;;1.45;1.35;;;;;;;20.04;49.63;101407.99;;;;-50
2019/05/31 11:31:53;;;;;;;1.45;1.35;;;;;;;20.04;49.63;101411.84;;;;-51
2019/05/31 11:34:52;;;;;;;1.63;1.41;;;;;;;20.04;49.63;101413.86;;;;-50
2019/05/31 11:37:52;;;;;;;1.42;1.32;;;;;;;20.04;49.64;101409.33;;;;-50
2019/05/31 11:40:53;;;;;;;1.62;1.41;;;;;;;20.04;49.59;101401.17;;;;-50
2019/05/31 11:43:53;;;;;;;1.40;1.30;;;;;;;20.04;49.59;101406.24;;;;-50
2019/05/31 11:46:53;;;;;;;1.53;1.43;;;;;;;20.03;49.61;101398.88;;;;-50
2019/05/31 11:49:53;;;;;;;1.45;1.35;;;;;;;20.04;49.62;101400.60;;;;-50
2019/05/31 11:52:53;;;;;;;1.41;1.30;;;;;;;20.03;49.66;101397.86;;;;-50
2019/05/31 11:55:52;;;;;;;1.51;1.41;;;;;;;20.03;49.58;101396.80;;;;-50
2019/05/31 11:58:53;;;;;;;1.41;1.31;;;;;;;20.03;49.65;101398.37;;;;-50
2019/05/31 12:01:52;;;;;;;1.50;1.40;;;;;;;20.03;49.64;101395.85;;;;-50
2019/05/31 12:04:53;;;;;;;1.41;1.29;;;;;;;20.03;49.57;101394.73;;;;-52
2019/05/31 12:07:53;;;;;;;1.49;1.39;;;;;;;20.03;49.65;101391.55;;;;-52
2019/05/31 12:10:53;;;;;;;1.92;1.40;;;;;;;20.03;49.68;101393.56;;;;-51
2019/05/31 12:13:53;;;;;;;1.41;1.31;;;;;;;20.02;49.64;101389.44;;;;-51
2019/05/31 12:16:52;;;;;;;1.69;1.40;;;;;;;20.02;49.66;101389.59;;;;-53
2019/05/31 12:19:53;;;;;;;5.23;1.40;;;;;;;20.04;49.71;101388.53;;;;-52
2019/05/31 12:22:53;;;;;;;1.32;1.20;;;;;;;20.05;49.89;101387.09;;;;-54
2019/05/31 12:25:52;;;;;;;3.10;1.41;;;;;;;20.08;50.00;101384.90;;;;-53
2019/05/31 12:28:52;;;;;;;5.76;1.40;;;;;;;20.09;49.93;101387.48;;;;-52
2019/05/31 12:31:53;;;;;;;4.59;1.40;;;;;;;20.10;49.86;101387.92;;;;-53
2019/05/31 12:34:53;;;;;;;1.47;1.37;;;;;;;20.09;49.89;101387.97;;;;-52
2019/05/31 12:37:52;;;;;;;2.11;1.44;;;;;;;20.08;49.92;101390.78;;;;-53
2019/05/31 12:40:52;;;;;;;2.15;1.50;;;;;;;20.09;49.87;101392.58;;;;-51
2019/05/31 12:43:52;;;;;;;1.50;1.40;;;;;;;20.09;49.92;101390.55;;;;-53
2019/05/31 12:46:52;;;;;;;2.06;1.40;;;;;;;20.09;49.87;101392.50;;;;-53
2019/05/31 12:49:53;;;;;;;1.92;1.33;;;;;;;20.09;49.92;101392.18;;;;-52
2019/05/31 12:52:53;;;;;;;1.51;1.41;;;;;;;20.10;49.87;101389.44;;;;-52
2019/05/31 12:55:52;;;;;;;1.51;1.40;;;;;;;20.10;49.90;101384.57;;;;-53
2019/05/31 12:58:53;;;;;;;2.02;1.49;;;;;;;20.10;49.88;101382.33;;;;-52
2019/05/31 13:01:52;;;;;;;2.42;1.49;;;;;;;20.09;49.80;101382.12;;;;-53
2019/05/31 13:04:53;;;;;;;3.05;1.45;;;;;;;20.10;49.83;101378.30;;;;-52
2019/05/31 13:07:52;;;;;;;2.01;1.50;;;;;;;20.10;49.79;101378.14;;;;-53
2019/05/31 13:10:53;;;;;;;1.99;1.45;;;;;;;20.10;49.72;101378.98;;;;-53
2019/05/31 13:13:53;;;;;;;1.49;1.39;;;;;;;20.10;49.75;101379.66;;;;-52
2019/05/31 13:16:53;;;;;;;3.38;1.48;;;;;;;20.10;49.90;101377.98;;;;-54
2019/05/31 13:19:53;;;;;;;1.79;1.50;;;;;;;20.13;50.12;101376.69;;;;-54
2019/05/31 13:22:52;;;;;;;1.61;1.40;;;;;;;20.15;50.12;101372.95;;;;-54
2019/05/31 13:25:53;;;;;;;2.63;1.49;;;;;;;20.18;50.21;101368.59;;;;-53
2019/05/31 13:28:53;;;;;;;2.20;1.41;;;;;;;20.19;50.25;101368.81;;;;-51
2019/05/31 13:31:53;;;;;;;2.28;1.41;;;;;;;20.21;50.28;101368.53;;;;-58
2019/05/31 13:34:53;;;;;;;3.57;1.53;;;;;;;20.22;50.27;101360.38;;;;-57
2019/05/31 13:37:53;;;;;;;2.84;1.60;;;;;;;20.25;50.29;101362.41;;;;-59
2019/05/31 13:40:53;;;;;;;2.37;1.49;;;;;;;20.26;50.26;101363.23;;;;-52
2019/05/31 13:43:52;;;;;;;1.57;1.40;;;;;;;20.28;50.29;101356.52;;;;-58
2019/05/31 13:46:52;;;;;;;1.79;1.49;;;;;;;20.29;50.32;101355.69;;;;-53
2019/05/31 13:49:53;;;;;;;2.60;1.51;;;;;;;20.30;50.47;101344.61;;;;-55
2019/05/31 13:52:53;;;;;;;3.19;1.51;;;;;;;20.31;50.52;101346.08;;;;-54
2019/05/31 13:55:53;;;;;;;4.81;1.60;;;;;;;20.32;50.29;101344.28;;;;-54
2019/05/31 13:58:53;;;;;;;4.88;1.52;;;;;;;20.30;50.30;101342.20;;;;-54
2019/05/31 14:01:52;;;;;;;2.66;1.55;;;;;;;20.30;50.32;101341.59;;;;-54
2019/05/31 14:04:52;;;;;;;4.20;1.50;;;;;;;20.29;50.36;101343.66;;;;-54
2019/05/31 14:07:52;;;;;;;7.26;1.51;;;;;;;20.28;50.45;101341.14;;;;-52
2019/05/31 14:10:52;;;;;;;3.77;1.75;;;;;;;20.31;50.55;101346.57;;;;-50
2019/05/31 14:13:52;;;;;;;6.40;1.71;;;;;;;20.31;50.45;101343.48;;;;-51
2019/05/31 14:16:53;;;;;;;6.99;1.63;;;;;;;20.33;50.44;101346.02;;;;-54
2019/05/31 14:19:52;;;;;;;3.13;1.60;;;;;;;20.35;50.45;101341.94;;;;-53
2019/05/31 14:22:52;;;;;;;6.01;1.70;;;;;;;20.37;50.46;101341.36;;;;-54
2019/05/31 14:25:53;;;;;;;2.77;1.54;;;;;;;20.38;50.43;101339.06;;;;-57
2019/05/31 14:28:52;;;;;;;4.93;1.67;;;;;;;20.38;50.44;101336.06;;;;-52
2019/05/31 14:31:53;;;;;;;3.02;1.51;;;;;;;20.39;50.45;101335.61;;;;-52
2019/05/31 14:34:53;;;;;;;3.05;1.60;;;;;;;20.41;50.50;101339.73;;;;-52
2019/05/31 14:37:53;;;;;;;2.65;1.57;;;;;;;20.41;50.43;101339.41;;;;-54
2019/05/31 14:40:53;;;;;;;3.67;1.55;;;;;;;20.42;50.56;101337.68;;;;-53
2019/05/31 14:43:53;;;;;;;3.07;1.61;;;;;;;20.43;50.45;101337.23;;;;-52
2019/05/31 14:46:54;;;;;;;4.67;1.72;;;;;;;20.44;50.42;101334.98;;;;-49
2019/05/31 14:49:52;;;;;;;4.08;1.65;;;;;;;20.42;50.43;101333.66;;;;-49
2019/05/31 14:52:52;;;;;;;2.82;1.50;;;;;;;20.41;50.45;101334.48;;;;-49
2019/05/31 14:55:52;;;;;;;2.67;1.48;;;;;;;20.40;50.44;101331.41;;;;-49
2019/05/31 14:58:53;;;;;;;3.61;1.71;;;;;;;20.40;50.38;101327.51;;;;-49
2019/05/31 15:01:53;;;;;;;6.85;1.66;;;;;;;20.39;50.37;101330.02;;;;-49
2019/05/31 15:04:53;;;;;;;2.87;1.46;;;;;;;20.39;50.35;101324.13;;;;-49
2019/05/31 15:07:52;;;;;;;3.03;1.57;;;;;;;20.38;50.32;101324.58;;;;-49
2019/05/31 15:10:53;;;;;;;3.62;1.40;;;;;;;20.38;50.24;101327.99;;;;-49
2019/05/31 15:13:53;;;;;;;3.79;1.68;;;;;;;20.37;50.22;101325.03;;;;-49
2019/05/31 15:16:52;;;;;;;2.63;1.59;;;;;;;20.37;50.20;101321.40;;;;-49
2019/05/31 15:19:53;;;;;;;3.17;1.51;;;;;;;20.36;50.18;101319.61;;;;-49
2019/05/31 15:22:52;;;;;;;2.21;1.49;;;;;;;20.35;50.13;101311.73;;;;-49
2019/05/31 15:25:53;;;;;;;2.59;1.47;;;;;;;20.35;50.14;101315.36;;;;-49
2019/05/31 15:28:52;;;;;;;1.59;1.40;;;;;;;20.35;50.08;101313.52;;;;-49
2019/05/31 15:31:52;;;;;;;1.95;1.59;;;;;;;20.35;50.03;101309.88;;;;-49
2019/05/31 15:36:52;;;;;;;4.38;1.51;;;;;;;20.37;50.23;101304.06;;;;-49
2019/05/31 15:39:52;;;;;;;5.33;1.73;;;;;;;20.40;50.78;101306.20;;;;-59
2019/05/31 15:42:53;;;;;;;7.45;1.70;;;;;;;20.42;50.73;101304.96;;;;-51
2019/05/31 15:45:52;;;;;;;6.53;1.70;;;;;;;20.43;50.63;101306.47;;;;-50
2019/05/31 15:48:52;;;;;;;2.65;1.65;;;;;;;20.46;50.53;101309.14;;;;-51
2019/05/31 15:51:53;;;;;;;6.01;1.73;;;;;;;20.45;50.52;101305.84;;;;-48
2019/05/31 15:54:52;;;;;;;4.34;1.61;;;;;;;20.48;50.54;101304.84;;;;-52
2019/05/31 15:57:52;;;;;;;3.60;1.49;;;;;;;20.48;50.72;101304.22;;;;-49
2019/05/31 16:00:53;;;;;;;2.58;1.52;;;;;;;20.49;50.59;101301.92;;;;-46
2019/05/31 16:03:53;;;;;;;3.78;1.45;;;;;;;20.50;50.69;101296.61;;;;-50
2019/05/31 16:06:52;;;;;;;2.69;1.60;;;;;;;20.51;50.73;101297.94;;;;-48
2019/05/31 16:09:52;;;;;;;5.83;1.57;;;;;;;20.51;50.62;101288.88;;;;-52
2019/05/31 16:12:52;;;;;;;4.10;1.61;;;;;;;20.52;50.61;101290.11;;;;-47
2019/05/31 16:15:53;;;;;;;5.06;1.59;;;;;;;20.53;50.67;101287.98;;;;-48
2019/05/31 16:18:52;;;;;;;4.23;1.67;;;;;;;20.54;50.66;101284.19;;;;-48
2019/05/31 16:21:53;;;;;;;6.27;1.70;;;;;;;20.54;50.66;101283.73;;;;-48
2019/05/31 16:24:53;;;;;;;6.81;1.53;;;;;;;20.55;50.63;101285.97;;;;-53
2019/05/31 16:27:53;;;;;;;2.11;1.40;;;;;;;20.56;50.56;101284.08;;;;-52
2019/05/31 16:30:52;;;;;;;4.51;1.76;;;;;;;20.57;50.63;101282.17;;;;-47
2019/05/31 16:33:52;;;;;;;5.08;1.60;;;;;;;20.58;50.67;101286.20;;;;-49
2019/05/31 16:36:52;;;;;;;3.63;1.59;;;;;;;20.59;50.69;101280.14;;;;-49
2019/05/31 16:39:52;;;;;;;7.24;1.52;;;;;;;20.59;50.60;101279.30;;;;-52
2019/05/31 16:42:53;;;;;;;4.91;1.45;;;;;;;20.59;50.57;101278.20;;;;-53
2019/05/31 16:45:52;;;;;;;3.92;1.70;;;;;;;20.60;50.72;101280.09;;;;-49